Flight Track Log - Related Links

Times and Time Zones

All times are in EDT time to prevent confusion due to time zone crossing. See the AAL2345 flight status page for this flight to view local times or setup timezone preferences in your user account.

Time Position Orientation Groundspeed Altitude Reporting Facility
EDT Latitude Longitude Course Direction KTS MPH feet Rate Location/Type
Thu 07:00:47 PM 41.9667 -87.8667 194° South 180 207 2,300  Level Chicago TRACON
Thu 07:01:47 PM 41.9333 -87.8167 132° Southeast 224 258 3,700 1,256 Climbing Chicago TRACON
Thu 07:02:56 PM 41.8678 -87.7581 146° Southeast 237 273 5,000 1,282 Climbing Chicago Center
Thu 07:03:00 PM 41.7507 -88.1798 201° Southwest  Level Estimated
Thu 07:03:58 PM 41.7894 -87.7514 176° South 267 307 6,500  Level Chicago Center
Thu 07:04:00 PM 41.6736 -88.2705 197° South  Level Estimated
Thu 07:05:00 PM 41.5776 -88.2222 159° South  Level FlightAware Approximate
Thu 07:05:01 PM 41.7472 -87.8219 231° Southwest 278 320 8,900  Level Chicago Center
Thu 07:06:00 PM 41.4990 -88.3157 194° South  Level Estimated
Thu 07:06:03 PM 41.7247 -87.9417 256° West 279 321 12,400  Level Chicago Center
Thu 07:07:05 PM 41.6853 -88.0294 239° Southwest 302 348 14,500 1,306 Climbing Chicago Center
Thu 07:08:07 PM 41.6075 -88.0725 202° Southwest 303 349 15,100 968 Climbing Chicago Center
Thu 07:09:09 PM 41.5294 -88.1136 202° Southwest 307 353 16,500 1,742 Climbing Chicago Center
Thu 07:10:11 PM 41.4264 -88.1678 202° Southwest 344 396 18,700 1,935 Climbing Chicago Center
Thu 07:11:13 PM 41.3364 -88.2119 200° South 352 405 20,500 1,742 Climbing Chicago Center
Thu 07:12:15 PM 41.2428 -88.2533 198° South 359 413 22,300 1,645 Climbing Chicago Center
Thu 07:13:17 PM 41.1483 -88.2964 199° South 361 415 23,900 1,500 Climbing Chicago Center
Thu 07:14:19 PM 41.0317 -88.3497 199° South 370 426 25,400 1,200 Climbing Chicago Center
Thu 07:15:22 PM 40.9567 -88.4439 223° Southwest 369 425 26,400 912 Climbing Chicago Center
Thu 07:16:24 PM 40.8747 -88.5369 221° Southwest 387 445 27,300 774 Climbing Chicago Center
Thu 07:17:26 PM 40.7886 -88.6300 219° Southwest 400 460 28,000 339 Climbing Chicago Center
Thu 07:18:28 PM 40.6981 -88.7283 219° Southwest 417 480 28,000  Level Chicago Center
Thu 07:19:31 PM 40.5911 -88.8433 219° Southwest 418 481 28,000  Level Chicago Center
Thu 07:20:32 PM 40.4989 -88.9403 219° Southwest 421 484 28,000  Level Chicago Center
Thu 07:21:34 PM 40.4083 -89.0375 219° Southwest 419 482 28,000  Level Chicago Center
Thu 07:22:36 PM 40.3169 -89.1342 219° Southwest 420 483 28,000  Level Chicago Center
Thu 07:23:38 PM 40.2264 -89.2319 220° Southwest 420 483 28,000  Level Chicago Center
Thu 07:24:40 PM 40.1344 -89.3286 219° Southwest 422 486 28,000  Level Chicago Center
Thu 07:25:39 PM 40.0433 -89.4258 219° Southwest 418 481 28,000  Level Kansas City Center
Thu 07:26:41 PM 39.9528 -89.5228 219° Southwest 420 483 28,000  Level Kansas City Center
Thu 07:27:43 PM 39.8611 -89.6189 219° Southwest 421 484 28,000  Level Kansas City Center
Thu 07:28:45 PM 39.7508 -89.7339 219° Southwest 422 486 28,000  Level Kansas City Center
Thu 07:29:47 PM 39.6547 -89.8350 219° Southwest 424 488 28,000  Level Kansas City Center
Thu 07:30:49 PM 39.5636 -89.9289 218° Southwest 422 486 28,000  Level Kansas City Center
Thu 07:31:51 PM 39.4728 -90.0250 219° Southwest 423 487 28,000  Level Kansas City Center
Thu 07:32:53 PM 39.3808 -90.1197 219° Southwest 424 488 28,000  Level Kansas City Center
Thu 07:33:55 PM 39.2889 -90.2167 219° Southwest 426 490 28,000  Level Kansas City Center
Thu 07:34:58 PM 39.1972 -90.3111 219° Southwest 426 490 28,000  Level Kansas City Center
Thu 07:36:00 PM 39.0883 -90.4242 219° Southwest 424 488 28,000  Level Kansas City Center
Thu 07:37:02 PM 38.9967 -90.5181 219° Southwest 424 488 28,000  Level Kansas City Center
Thu 07:38:04 PM 38.8997 -90.6150 218° Southwest 427 491 28,000  Level Kansas City Center
Thu 07:39:06 PM 38.8114 -90.7050 218° Southwest 429 494 28,000  Level Kansas City Center
Thu 07:40:08 PM 38.7008 -90.8156 218° Southwest 428 493 28,000  Level Kansas City Center
Thu 07:41:10 PM 38.6089 -90.9081 218° Southwest 425 489 28,000  Level Kansas City Center
Thu 07:42:12 PM 38.5169 -91.0006 218° Southwest 423 487 28,000  Level Kansas City Center
Thu 07:43:14 PM 38.4236 -91.0928 218° Southwest 426 490 28,000  Level Kansas City Center
Thu 07:44:16 PM 38.3289 -91.1856 218° Southwest 428 493 28,000  Level Kansas City Center
Thu 07:45:18 PM 38.2358 -91.2789 218° Southwest 428 493 28,000  Level Kansas City Center
Thu 07:46:20 PM 38.1297 -91.3836 218° Southwest 427 491 28,000  Level Kansas City Center
Thu 07:47:22 PM 38.0347 -91.4758 217° Southwest 427 491 28,000 -1,403 Level Kansas City Center
Thu 07:48:24 PM 37.9464 -91.5633 218° Southwest 405 466 25,100 -1,935 Descending Kansas City Center
Thu 07:49:26 PM 37.8319 -91.6761 218° Southwest 421 484 24,000 -532 Descending Kansas City Center
Thu 07:50:28 PM 37.7331 -91.7736 218° Southwest 439 505 24,000  Level Kansas City Center
Thu 07:51:30 PM 37.6350 -91.8692 218° Southwest 441 507 24,000  Level Kansas City Center
Thu 07:52:32 PM 37.5375 -91.9631 217° Southwest 438 504 24,000  Level Kansas City Center
Thu 07:53:34 PM 37.4431 -92.0608 219° Southwest 436 502 24,000  Level Kansas City Center
Thu 07:54:36 PM 37.3506 -92.1672 222° Southwest 441 507 24,000  Level Kansas City Center
Thu 07:55:39 PM 37.2586 -92.2706 222° Southwest 442 509 24,000  Level Kansas City Center
Thu 07:56:41 PM 37.1678 -92.3706 221° Southwest 436 502 24,000  Level Kansas City Center
Thu 07:57:43 PM 37.0775 -92.4697 221° Southwest 430 495 24,000  Level Kansas City Center
Thu 07:58:45 PM 36.9731 -92.5842 221° Southwest 416 479 24,000  Level Kansas City Center
Thu 07:59:47 PM 36.8864 -92.6764 220° Southwest 409 471 24,000  Level Kansas City Center
Thu 08:00:49 PM 36.8000 -92.7706 221° Southwest 410 472 24,000  Level Kansas City Center
Thu 08:01:51 PM 36.7133 -92.8631 221° Southwest 409 471 24,000  Level Kansas City Center
Thu 08:02:53 PM 36.6261 -92.9589 221° Southwest 412 474 24,000  Level Kansas City Center
Thu 08:03:55 PM 36.5378 -93.0506 220° Southwest 413 475 24,000  Level Kansas City Center
Thu 08:04:57 PM 36.4522 -93.1458 222° Southwest 414 476 24,000  Level Kansas City Center
Thu 08:05:59 PM 36.3494 -93.2569 221° Southwest 412 474 24,000  Level Kansas City Center
Thu 08:06:20 PM 36.3267 -93.2833 223° Southwest 418 481 24,000  Level Memphis Center
Thu 08:07:20 PM 36.2389 -93.3781 221° Southwest 418 481 24,000  Level Memphis Center
Thu 08:08:20 PM 36.1553 -93.4700 222° Southwest 418 481 24,000  Level Memphis Center
Thu 08:09:20 PM 36.0675 -93.5617 220° Southwest 418 481 24,000  Level Memphis Center
Thu 08:10:20 PM 35.9689 -93.6603 219° Southwest 423 487 24,000  Level Memphis Center
Thu 08:11:20 PM 35.8808 -93.7567 222° Southwest 423 487 24,000  Level Memphis Center
Thu 08:13:20 PM 35.7047 -93.9439 221° Southwest 423 487 24,000  Level Memphis Center
Thu 08:14:20 PM 35.6144 -94.0369 220° Southwest 423 487 24,000  Level Memphis Center
Thu 08:15:20 PM 35.5261 -94.1275 220° Southwest 423 487 24,000  Level Memphis Center
Thu 08:16:20 PM 35.4378 -94.2203 221° Southwest 423 487 24,000  Level Memphis Center
Thu 08:17:20 PM 35.3472 -94.3128 220° Southwest 423 487 24,000  Level Memphis Center
Thu 08:18:20 PM 35.2586 -94.4103 222° Southwest 423 487 24,000  Level Memphis Center
Thu 08:20:29 PM 35.0850 -94.6050 223° Southwest 418 481 24,000  Level Fort Worth Center
Thu 08:21:29 PM 34.9972 -94.6967 221° Southwest 405 466 24,000  Level Fort Worth Center
Thu 08:22:29 PM 34.9097 -94.7931 222° Southwest 411 473 24,000  Level Fort Worth Center
Thu 08:23:29 PM 34.8136 -94.8972 222° Southwest 424 488 24,000  Level Fort Worth Center
Thu 08:24:29 PM 34.7219 -94.9983 222° Southwest 437 503 24,000  Level Fort Worth Center
Thu 08:25:29 PM 34.6317 -95.0892 220° Southwest 432 497 24,000  Level Fort Worth Center
Thu 08:26:29 PM 34.5417 -95.1875 222° Southwest 432 497 24,000  Level Fort Worth Center
Thu 08:27:29 PM 34.4517 -95.2831 221° Southwest 432 497 24,000  Level Fort Worth Center
Thu 08:28:29 PM 34.3572 -95.3808 221° Southwest 438 504 24,000  Level Fort Worth Center
Thu 08:29:29 PM 34.2669 -95.4783 222° Southwest 444 511 24,000  Level Fort Worth Center
Thu 08:30:29 PM 34.1908 -95.5556 220° Southwest 444 511 24,000  Level Fort Worth Center
Thu 08:31:29 PM 34.0964 -95.6528 220° Southwest 450 518 24,000 -350 Level Fort Worth Center
Thu 08:32:29 PM 33.9894 -95.7703 222° Southwest 450 518 23,300 -1,300 Descending Fort Worth Center
Thu 08:33:29 PM 33.8925 -95.8697 220° Southwest 450 518 21,400 -1,950 Descending Fort Worth Center
Thu 08:34:29 PM 33.7997 -95.9661 221° Southwest 456 525 19,400 -1,900 Descending Fort Worth Center
Thu 08:35:29 PM 33.7172 -96.0500 220° Southwest 444 511 17,600 -1,900 Descending Fort Worth Center
Thu 08:36:29 PM 33.6244 -96.1461 221° Southwest 421 484 15,600 -1,700 Descending Fort Worth Center
Thu 08:37:29 PM 33.5561 -96.2169 221° Southwest 386 444 14,200 -1,500 Descending Fort Worth Center
Thu 08:38:29 PM 33.4756 -96.3103 224° Southwest 362 417 12,600 -1,500 Descending Fort Worth Center
Thu 08:39:29 PM 33.4178 -96.3806 225° Southwest 350 403 11,200 -750 Descending Fort Worth Center
Thu 08:40:29 PM 33.3494 -96.4611 225° Southwest 330 380 11,100 -50 Descending Fort Worth Center
Thu 08:41:29 PM 33.2936 -96.5261 224° Southwest 311 358 11,100  Level Fort Worth Center
Thu 08:42:29 PM 33.2358 -96.5964 226° Southwest 305 351 11,100  Level Fort Worth Center
Thu 08:43:29 PM 33.1714 -96.6714 224° Southwest 305 351 11,100  Level Fort Worth Center
Thu 08:44:29 PM 33.1156 -96.7364 224° Southwest 305 351 11,100 -57 Level Fort Worth Center
Thu 08:45:15 PM 33.0667 -96.8000 227° Southwest 287 330 11,000  Descending Dallas / Fort Worth TRACON
Thu 08:46:09 PM 33.0167 -96.8500 220° Southwest 247 284 11,100  Climbing Dallas / Fort Worth TRACON
Thu 08:47:04 PM 32.9667 -96.9000 220° Southwest 252 290 11,000 -678 Descending Dallas / Fort Worth TRACON
Thu 08:48:04 PM 32.9000 -96.9000 180° South 276 318 9,800 -1,200 Descending Dallas / Fort Worth TRACON
Thu 08:49:04 PM 32.8167 -96.9000 180° South 269 310 8,600 -1,200 Descending Dallas / Fort Worth TRACON
Thu 08:50:04 PM 32.7500 -96.9000 180° South 256 295 7,400 -1,296 Descending Dallas / Fort Worth TRACON
Thu 08:51:09 PM 32.6833 -96.9167 192° South 249 287 5,900 -1,584 Descending Dallas / Fort Worth TRACON
Thu 08:52:09 PM 32.6667 -97.0000 257° West 226 260 4,100 -1,800 Descending Dallas / Fort Worth TRACON

Login

Don't have an account? Register now (free) for customized features, flight alerts, and more!